createdAt,value
2022-09-10T00:01:37.872Z,12.00
2022-09-10T00:04:16.034Z,12.50
2022-09-10T00:06:44.822Z,12.80
2022-09-10T00:09:13.410Z,12.30
2022-09-10T00:11:41.844Z,12.10
2022-09-10T00:14:22.617Z,12.10
2022-09-10T00:16:51.250Z,11.80
2022-09-10T00:19:19.637Z,14.00
2022-09-10T00:21:48.517Z,11.80
2022-09-10T00:24:17.146Z,11.40
2022-09-10T00:26:45.889Z,10.40
2022-09-10T00:29:16.076Z,12.10
2022-09-10T00:31:44.894Z,10.10
2022-09-10T00:34:14.378Z,10.60
2022-09-10T00:36:44.175Z,11.60
2022-09-10T00:39:17.127Z,11.60
2022-09-10T00:41:48.471Z,13.70
2022-09-10T00:44:39.699Z,11.30
2022-09-10T00:47:21.640Z,11.80
2022-09-10T00:50:03.326Z,12.60
2022-09-10T00:52:31.444Z,12.80
2022-09-10T00:54:59.908Z,11.60
2022-09-10T00:57:29.380Z,12.00
2022-09-10T01:00:05.555Z,11.70
2022-09-10T01:02:33.719Z,11.50
2022-09-10T01:05:04.785Z,12.20
2022-09-10T01:07:33.852Z,11.00
2022-09-10T01:10:10.446Z,12.20
2022-09-10T01:12:58.406Z,12.80
2022-09-10T01:16:00.139Z,10.30
2022-09-10T01:18:51.776Z,12.00
2022-09-10T01:22:12.167Z,11.20
2022-09-10T01:25:04.795Z,13.40
2022-09-10T01:27:50.383Z,11.10
2022-09-10T01:30:24.609Z,12.10
2022-09-10T01:33:49.735Z,12.10
2022-09-10T01:36:25.085Z,13.10
2022-09-10T01:38:53.988Z,12.20
2022-09-10T01:41:26.145Z,11.40
2022-09-10T01:43:54.037Z,13.30
2022-09-10T01:46:55.181Z,13.60
2022-09-10T01:49:50.374Z,13.30
2022-09-10T01:52:49.538Z,12.80
2022-09-10T01:55:54.242Z,11.80
2022-09-10T01:58:37.954Z,12.30
2022-09-10T02:01:24.691Z,12.50
2022-09-10T02:04:00.047Z,13.10
2022-09-10T02:06:33.197Z,12.80
2022-09-10T02:09:03.433Z,14.00
2022-09-10T02:11:44.013Z,14.80
2022-09-10T02:14:14.397Z,14.60
2022-09-10T02:16:50.454Z,12.80
2022-09-10T02:19:18.838Z,14.30
2022-09-10T02:21:47.486Z,12.60
2022-09-10T02:24:15.406Z,13.40
2022-09-10T02:26:45.152Z,11.80
2022-09-10T02:29:16.638Z,13.50
2022-09-10T02:31:44.842Z,15.30
2022-09-10T02:34:12.902Z,13.60
2022-09-10T02:36:40.765Z,13.00
2022-09-10T02:39:08.754Z,12.90
2022-09-10T02:41:37.811Z,12.90
2022-09-10T02:44:05.896Z,13.30
2022-09-10T02:46:33.954Z,11.70
2022-09-10T02:49:01.891Z,14.20
2022-09-10T02:51:29.684Z,13.10
2022-09-10T02:53:57.673Z,13.90
2022-09-10T02:56:25.440Z,10.80
2022-09-10T02:58:53.215Z,13.00
2022-09-10T03:01:23.035Z,12.50
2022-09-10T03:03:58.364Z,12.90
2022-09-10T03:06:27.657Z,12.00
2022-09-10T03:08:55.574Z,14.20
2022-09-10T03:11:24.844Z,16.20
2022-09-10T03:13:52.575Z,13.10
2022-09-10T03:16:20.557Z,12.20
2022-09-10T03:18:48.327Z,13.20
2022-09-10T03:21:21.251Z,11.60
2022-09-10T03:23:52.805Z,11.70
2022-09-10T03:26:23.813Z,11.90
2022-09-10T03:28:51.650Z,11.40
2022-09-10T03:31:19.720Z,13.20
2022-09-10T03:33:47.767Z,11.00
2022-09-10T03:36:15.704Z,10.70
2022-09-10T03:38:44.683Z,13.70
2022-09-10T03:41:12.604Z,12.00
2022-09-10T03:43:40.644Z,12.30
2022-09-10T03:46:08.529Z,11.10
2022-09-10T03:48:36.556Z,12.70
2022-09-10T03:51:04.680Z,11.40
2022-09-10T03:53:32.444Z,11.50
2022-09-10T03:56:00.308Z,12.30
2022-09-10T03:58:28.891Z,12.70
2022-09-10T04:00:56.701Z,11.50
2022-09-10T04:03:24.602Z,12.00
2022-09-10T04:05:52.436Z,11.50
2022-09-10T04:08:20.728Z,12.00
2022-09-10T04:10:48.615Z,12.20
2022-09-10T04:13:16.411Z,11.70
2022-09-10T04:15:47.646Z,11.20
2022-09-10T04:18:15.527Z,13.30
2022-09-10T04:20:47.826Z,12.90
2022-09-10T04:23:16.802Z,13.10
2022-09-10T04:25:44.708Z,13.10
2022-09-10T04:28:13.895Z,11.10
2022-09-10T04:30:44.722Z,13.20
2022-09-10T04:33:13.116Z,14.20
2022-09-10T04:35:42.286Z,14.20
2022-09-10T04:38:10.229Z,14.50
2022-09-10T04:40:38.627Z,13.40
2022-09-10T04:43:06.432Z,12.20
2022-09-10T04:45:34.890Z,12.30
2022-09-10T04:48:06.825Z,13.00
2022-09-10T04:50:35.781Z,13.10
2022-09-10T04:53:03.657Z,12.50
2022-09-10T04:55:33.369Z,14.90
2022-09-10T04:58:01.298Z,12.90
2022-09-10T05:00:32.652Z,13.20
2022-09-10T05:03:00.797Z,14.70
2022-09-10T05:05:28.690Z,14.20
2022-09-10T05:07:56.532Z,13.40
2022-09-10T05:10:24.858Z,14.60
2022-09-10T05:12:53.383Z,11.90
2022-09-10T05:15:21.323Z,12.90
2022-09-10T05:17:50.028Z,15.10
2022-09-10T05:20:20.813Z,12.10
2022-09-10T05:22:49.237Z,11.60
2022-09-10T05:25:17.640Z,12.40
2022-09-10T05:27:45.541Z,11.90
2022-09-10T05:30:13.573Z,11.50
2022-09-10T05:32:41.502Z,11.70
2022-09-10T05:35:10.343Z,10.40
2022-09-10T05:37:38.504Z,13.10
2022-09-10T05:40:09.585Z,12.20
2022-09-10T05:42:37.808Z,10.50
2022-09-10T05:45:06.712Z,11.40
2022-09-10T05:47:34.962Z,10.80
2022-09-10T05:50:02.944Z,10.90
2022-09-10T05:52:31.249Z,11.00
2022-09-10T05:54:59.858Z,11.50
2022-09-10T05:57:28.217Z,11.70
2022-09-10T06:00:00.134Z,9.70
2022-09-10T06:02:28.269Z,10.00
2022-09-10T06:04:56.119Z,9.90
2022-09-10T06:07:23.854Z,11.00
2022-09-10T06:10:06.584Z,10.90
2022-09-10T06:12:40.599Z,10.20
2022-09-10T06:15:19.051Z,9.50
2022-09-10T06:18:13.149Z,9.90
2022-09-10T06:20:45.271Z,10.10
2022-09-10T06:23:18.601Z,10.10
2022-09-10T06:25:48.654Z,9.60
2022-09-10T06:28:19.924Z,9.80
2022-09-10T06:30:51.194Z,12.30
2022-09-10T06:33:21.232Z,10.40
2022-09-10T06:36:13.479Z,11.70
2022-09-10T06:38:48.454Z,11.50
2022-09-10T06:44:06.990Z,9.90
2022-09-10T06:47:35.904Z,10.10
2022-09-10T06:49:53.027Z,10.40
2022-09-10T06:52:38.742Z,10.90
2022-09-10T06:55:09.655Z,11.10
2022-09-10T06:57:37.817Z,10.80
2022-09-10T07:00:06.789Z,12.60
2022-09-10T07:02:35.953Z,11.40
2022-09-10T07:05:06.629Z,11.30
2022-09-10T07:07:44.218Z,10.30
2022-09-10T07:10:13.174Z,11.10
2022-09-10T07:12:45.067Z,10.70
2022-09-10T07:15:14.575Z,12.80
2022-09-10T07:17:42.540Z,11.80
2022-09-10T07:20:10.822Z,11.60
2022-09-10T07:22:41.048Z,14.40
2022-09-10T07:25:09.568Z,12.30
2022-09-10T07:27:41.739Z,12.50
2022-09-10T07:30:27.321Z,13.90
2022-09-10T07:33:15.250Z,12.00
2022-09-10T07:35:43.608Z,13.80
2022-09-10T07:38:23.360Z,11.50
2022-09-10T07:40:53.689Z,12.10
2022-09-10T07:43:25.281Z,11.80
2022-09-10T07:45:55.694Z,10.50
2022-09-10T07:48:24.951Z,12.50
2022-09-10T07:50:53.817Z,13.70
2022-09-10T07:53:21.959Z,12.50
2022-09-10T07:56:01.352Z,12.80
2022-09-10T07:58:34.017Z,13.10
2022-09-10T08:01:14.430Z,12.20
2022-09-10T08:04:04.991Z,11.50
2022-09-10T08:06:48.194Z,13.70
2022-09-10T08:09:17.103Z,15.70
2022-09-10T08:11:45.821Z,11.40
2022-09-10T08:14:17.105Z,12.20
2022-09-10T08:16:45.320Z,14.20
2022-09-10T08:19:18.418Z,12.80
2022-09-10T08:21:47.833Z,13.00
2022-09-10T08:24:15.801Z,12.10
2022-09-10T08:26:47.210Z,11.50
2022-09-10T08:29:15.350Z,14.80
2022-09-10T08:31:46.142Z,13.40
2022-09-10T08:34:14.442Z,14.10
2022-09-10T08:36:42.466Z,12.40
2022-09-10T08:39:20.110Z,13.50
2022-09-10T08:42:14.493Z,12.20
2022-09-10T08:44:59.188Z,13.30
2022-09-10T08:47:51.340Z,11.80
2022-09-10T08:50:45.034Z,13.40
2022-09-10T08:53:56.493Z,13.70
2022-09-10T08:56:25.397Z,14.60
2022-09-10T08:59:28.673Z,13.60
2022-09-10T09:02:06.023Z,14.00
2022-09-10T09:04:59.188Z,14.30
2022-09-10T09:07:40.608Z,15.70
2022-09-10T09:10:25.876Z,13.20
2022-09-10T09:13:45.219Z,13.40
2022-09-10T09:16:43.678Z,16.00
2022-09-10T09:19:31.789Z,15.70
2022-09-10T09:22:21.025Z,18.00
2022-09-10T09:25:13.942Z,13.70
2022-09-10T09:27:45.701Z,14.50
2022-09-10T09:30:39.643Z,13.60
2022-09-10T09:33:21.313Z,13.60
2022-09-10T09:36:03.315Z,13.80
2022-09-10T09:38:49.067Z,16.50
2022-09-10T09:41:38.093Z,15.40
2022-09-10T09:44:31.737Z,14.20
2022-09-10T09:47:00.578Z,13.30
2022-09-10T09:49:29.717Z,13.10
2022-09-10T09:51:59.502Z,13.80
2022-09-10T09:55:03.079Z,14.00
2022-09-10T09:57:36.451Z,16.60
2022-09-10T10:00:38.343Z,13.90
2022-09-10T10:03:26.078Z,15.00
2022-09-10T10:06:10.037Z,15.00
2022-09-10T10:08:40.238Z,13.50
2022-09-10T10:11:12.421Z,12.50
2022-09-10T10:13:46.450Z,13.80
2022-09-10T10:16:38.048Z,13.10
2022-09-10T10:19:36.921Z,14.60
2022-09-10T10:22:13.796Z,15.60
2022-09-10T10:24:44.200Z,15.80
2022-09-10T10:27:32.965Z,15.00
2022-09-10T10:30:30.368Z,14.80
2022-09-10T10:33:02.060Z,15.30
2022-09-10T10:35:51.753Z,14.90
2022-09-10T10:38:40.685Z,15.50
2022-09-10T10:41:53.839Z,15.20
2022-09-10T10:44:56.356Z,16.00
2022-09-10T10:47:59.850Z,15.60
2022-09-10T10:51:00.615Z,16.70
2022-09-10T10:53:48.860Z,16.40
2022-09-10T10:56:40.805Z,16.30
2022-09-10T10:59:23.997Z,17.80
2022-09-10T11:02:01.435Z,14.10
2022-09-10T11:04:43.501Z,16.00
2022-09-10T11:07:18.646Z,17.10
2022-09-10T11:10:01.813Z,17.70
2022-09-10T11:13:00.841Z,17.70
2022-09-10T11:15:42.255Z,17.60
2022-09-10T11:18:33.987Z,13.30
2022-09-10T11:21:07.610Z,14.20
2022-09-10T11:23:58.231Z,14.60
2022-09-10T11:26:57.019Z,14.80
2022-09-10T11:30:04.378Z,14.20
2022-09-10T11:32:46.605Z,14.40
2022-09-10T11:35:22.284Z,18.00
2022-09-10T11:38:20.687Z,17.20
2022-09-10T11:41:22.503Z,18.00
2022-09-10T11:44:08.188Z,16.60
2022-09-10T11:46:57.089Z,17.50
2022-09-10T11:50:03.468Z,18.50
2022-09-10T11:52:35.213Z,18.50
2022-09-10T11:55:08.597Z,17.10
2022-09-10T11:57:53.886Z,15.50
2022-09-10T12:00:24.263Z,16.60
2022-09-10T12:03:44.438Z,16.10
2022-09-10T12:06:33.678Z,16.30
2022-09-10T12:09:22.982Z,16.70
2022-09-10T12:12:09.562Z,15.70
2022-09-10T12:14:41.101Z,17.70
2022-09-10T12:17:24.142Z,14.50
2022-09-10T12:19:57.474Z,14.90
2022-09-10T12:22:37.697Z,16.20
2022-09-10T12:25:31.630Z,14.40
2022-09-10T12:28:08.277Z,14.60
2022-09-10T12:30:36.130Z,13.90
2022-09-10T12:33:13.143Z,14.70
2022-09-10T12:35:49.021Z,14.20
2022-09-10T12:38:44.818Z,12.80
2022-09-10T12:41:32.831Z,12.80
2022-09-10T12:44:03.552Z,14.30
2022-09-10T12:46:32.891Z,13.10
2022-09-10T12:49:05.421Z,13.70
2022-09-10T12:51:52.669Z,15.00
2022-09-10T12:54:47.875Z,13.30
2022-09-10T12:57:32.702Z,13.50
2022-09-10T13:00:13.559Z,12.60
2022-09-10T13:03:06.578Z,12.40
2022-09-10T13:05:57.813Z,13.10
2022-09-10T13:08:34.036Z,12.10
2022-09-10T13:11:03.377Z,13.30
2022-09-10T13:13:49.185Z,11.50
2022-09-10T13:16:27.440Z,13.10
2022-09-10T13:19:17.674Z,12.30
2022-09-10T13:21:45.509Z,13.30
2022-09-10T13:24:35.961Z,12.20
2022-09-10T13:27:40.201Z,12.30
2022-09-10T13:30:21.380Z,13.70
2022-09-10T13:33:07.694Z,11.50
2022-09-10T13:35:50.665Z,13.10
2022-09-10T13:38:51.203Z,12.80
2022-09-10T13:41:55.811Z,15.60
2022-09-10T13:44:53.828Z,14.00
2022-09-10T13:47:39.464Z,14.80
2022-09-10T13:50:19.642Z,11.70
2022-09-10T13:52:55.619Z,11.50
2022-09-10T13:55:31.878Z,12.70
2022-09-10T13:58:14.977Z,11.80
2022-09-10T14:00:57.733Z,13.10
2022-09-10T14:03:34.999Z,13.80
2022-09-10T14:06:23.280Z,12.80
2022-09-10T14:08:58.743Z,12.40
2022-09-10T14:11:41.929Z,12.00
2022-09-10T14:14:30.227Z,12.30
2022-09-10T14:17:08.486Z,13.00
2022-09-10T14:19:50.037Z,16.50
2022-09-10T14:22:25.488Z,13.70
2022-09-10T14:25:05.886Z,12.50
2022-09-10T14:27:39.554Z,12.90
2022-09-10T14:30:31.010Z,14.40
2022-09-10T14:33:37.050Z,12.20
2022-09-10T14:36:24.950Z,13.40
2022-09-10T14:39:15.366Z,14.30
2022-09-10T14:41:45.240Z,14.50
2022-09-10T14:44:22.862Z,15.20
2022-09-10T14:47:00.445Z,15.00
2022-09-10T14:49:35.613Z,14.10
2022-09-10T14:52:05.529Z,15.80
2022-09-10T14:54:34.980Z,15.30
2022-09-10T14:57:13.971Z,15.60
2022-09-10T14:59:44.773Z,14.70
2022-09-10T15:02:19.883Z,15.30
2022-09-10T15:04:47.978Z,17.10
2022-09-10T15:07:16.051Z,17.70
2022-09-10T15:09:43.893Z,15.50
2022-09-10T15:12:29.285Z,15.00
2022-09-10T15:14:58.909Z,13.10
2022-09-10T15:17:27.349Z,15.10
2022-09-10T15:19:56.083Z,15.80
2022-09-10T15:22:31.949Z,17.00
2022-09-10T15:25:09.595Z,18.60
2022-09-10T15:27:38.500Z,18.60
2022-09-10T15:30:07.171Z,16.30
2022-09-10T15:32:35.119Z,15.80
2022-09-10T15:35:05.410Z,15.40
2022-09-10T15:37:33.275Z,14.70
2022-09-10T15:40:01.381Z,15.50
2022-09-10T15:42:30.925Z,15.80
2022-09-10T15:44:58.723Z,13.60
2022-09-10T15:47:27.673Z,15.50
2022-09-10T15:49:56.586Z,17.30
2022-09-10T15:52:24.426Z,16.70
2022-09-10T15:54:52.635Z,15.20
2022-09-10T15:57:20.832Z,16.70
2022-09-10T15:59:49.108Z,16.90
2022-09-10T16:02:17.455Z,15.90
2022-09-10T16:04:48.479Z,15.80
2022-09-10T16:07:16.728Z,15.60
2022-09-10T16:09:47.437Z,16.50
2022-09-10T16:12:17.414Z,16.80
2022-09-10T16:14:47.085Z,17.10
2022-09-10T16:17:27.580Z,25.00
2022-09-10T16:20:10.389Z,19.80
2022-09-10T16:26:26.425Z,16.10
2022-09-10T16:29:03.449Z,17.50
2022-09-10T16:31:45.086Z,15.50
2022-09-10T16:34:22.477Z,14.40
2022-09-10T16:36:56.443Z,14.30
2022-09-10T16:39:31.953Z,17.40
2022-09-10T16:42:08.085Z,18.40
2022-09-10T16:44:37.183Z,19.00
2022-09-10T16:47:05.374Z,17.80
2022-09-10T16:49:35.041Z,18.20
2022-09-10T16:52:19.758Z,15.30
2022-09-10T16:54:58.322Z,16.60
2022-09-10T16:57:40.424Z,16.90
2022-09-10T17:00:14.179Z,18.40
2022-09-10T17:02:43.328Z,20.20
2022-09-10T17:05:11.480Z,19.50
2022-09-10T17:07:39.455Z,16.00
2022-09-10T17:10:08.364Z,18.00
2022-09-10T17:12:36.399Z,18.70
2022-09-10T17:15:05.317Z,20.30
2022-09-10T17:17:33.601Z,20.20
2022-09-10T17:20:02.891Z,20.00
2022-09-10T17:22:31.175Z,19.80
2022-09-10T17:24:59.535Z,20.40
2022-09-10T17:27:33.331Z,20.10
2022-09-10T17:30:01.442Z,19.60
2022-09-10T17:32:45.887Z,20.30
2022-09-10T17:35:14.433Z,19.60
2022-09-10T17:37:45.607Z,20.50
2022-09-10T17:40:14.921Z,19.60
2022-09-10T17:42:47.395Z,23.60
2022-09-10T17:45:26.088Z,20.60
2022-09-10T17:47:54.382Z,20.20
2022-09-10T17:50:22.706Z,21.60
2022-09-10T17:52:54.317Z,22.90
2022-09-10T17:55:31.671Z,19.70
2022-09-10T17:58:04.882Z,21.70
2022-09-10T18:00:33.979Z,23.40
2022-09-10T18:03:04.660Z,21.80
2022-09-10T18:05:37.994Z,23.10
2022-09-10T18:08:06.738Z,21.30
2022-09-10T18:10:43.806Z,20.10
2022-09-10T18:13:13.767Z,24.10
2022-09-10T18:15:48.674Z,24.40
2022-09-10T18:18:16.943Z,21.60
2022-09-10T18:20:46.636Z,25.00
2022-09-10T18:23:15.263Z,22.60
2022-09-10T18:25:49.924Z,23.50
2022-09-10T18:28:18.424Z,22.90
2022-09-10T18:30:46.355Z,24.00
2022-09-10T18:33:15.064Z,22.70
2022-09-10T18:35:43.285Z,23.80
2022-09-10T18:38:11.684Z,25.10
2022-09-10T18:40:42.969Z,25.80
2022-09-10T18:43:11.791Z,26.30
2022-09-10T18:45:42.842Z,21.70
2022-09-10T18:48:11.175Z,27.80
2022-09-10T18:50:40.820Z,21.70
2022-09-10T18:53:12.936Z,22.00
2022-09-10T18:55:41.048Z,25.70
2022-09-10T18:58:10.068Z,22.30
2022-09-10T19:00:42.923Z,26.00
2022-09-10T19:03:53.822Z,26.80
2022-09-10T19:07:24.296Z,25.80
2022-09-10T19:17:16.268Z,21.60
2022-09-10T19:19:45.095Z,21.90
2022-09-10T19:22:18.019Z,19.40
2022-09-10T19:24:55.627Z,20.30
2022-09-10T19:27:24.956Z,21.30
2022-09-10T19:30:00.827Z,19.40
2022-09-10T19:32:30.813Z,24.50
2022-09-10T19:34:58.632Z,20.30
2022-09-10T19:43:58.410Z,23.80
2022-09-10T19:46:40.447Z,21.80
2022-09-10T19:49:30.425Z,24.10
2022-09-10T19:51:58.401Z,28.10
2022-09-10T19:54:33.227Z,27.40
2022-09-10T19:57:01.297Z,30.90
2022-09-10T19:59:32.690Z,31.10
2022-09-10T20:02:07.570Z,34.00
2022-09-10T20:04:47.483Z,30.60
2022-09-10T20:07:26.844Z,31.50
2022-09-10T20:09:55.925Z,32.90
2022-09-10T20:12:52.564Z,30.60
2022-09-10T20:15:20.442Z,35.90
2022-09-10T20:18:14.685Z,35.80
2022-09-10T20:24:41.864Z,28.30
2022-09-10T20:27:13.272Z,27.20
2022-09-10T20:29:44.220Z,30.60
2022-09-10T20:32:12.932Z,32.40
2022-09-10T20:34:40.742Z,32.30
2022-09-10T20:37:19.083Z,34.60
2022-09-10T20:39:51.361Z,34.80
2022-09-10T20:42:33.488Z,30.00
2022-09-10T20:45:06.331Z,31.30
2022-09-10T20:47:45.149Z,30.60
2022-09-10T20:50:18.265Z,31.80
2022-09-10T20:52:45.991Z,27.50
2022-09-10T20:55:27.728Z,28.80
2022-09-10T20:57:56.006Z,28.80
2022-09-10T21:00:28.539Z,30.90
2022-09-10T21:02:56.300Z,28.50
2022-09-10T21:09:18.158Z,24.80
2022-09-10T21:11:49.588Z,28.20
2022-09-10T21:14:19.625Z,25.40
2022-09-10T21:16:49.044Z,23.50
2022-09-10T21:19:27.824Z,24.60
2022-09-10T21:21:55.903Z,26.80
2022-09-10T21:24:26.976Z,26.10
2022-09-10T21:26:56.275Z,29.60
2022-09-10T21:29:24.410Z,27.00
2022-09-10T21:32:09.512Z,31.00
2022-09-10T21:34:48.631Z,28.40
2022-09-10T21:37:24.428Z,27.60
2022-09-10T21:39:53.200Z,24.20
2022-09-10T21:42:21.104Z,24.10
2022-09-10T21:44:48.846Z,25.40
2022-09-10T21:47:16.548Z,21.40
2022-09-10T21:49:44.340Z,23.20
2022-09-10T21:52:12.053Z,22.10
2022-09-10T21:54:39.832Z,21.80
2022-09-10T21:57:11.512Z,22.50
2022-09-10T21:59:39.342Z,23.20
2022-09-10T22:02:07.486Z,21.50
2022-09-10T22:04:36.071Z,21.20
2022-09-10T22:07:07.198Z,20.60
2022-09-10T22:09:34.962Z,22.20
2022-09-10T22:12:04.250Z,22.00
2022-09-10T22:14:32.297Z,20.40
2022-09-10T22:17:05.497Z,22.40
2022-09-10T22:19:33.253Z,21.20
2022-09-10T22:22:03.253Z,24.80
2022-09-10T22:24:31.025Z,24.00
2022-09-10T22:26:59.380Z,26.70
2022-09-10T22:29:27.165Z,22.30
2022-09-10T22:31:55.657Z,23.00
2022-09-10T22:34:23.502Z,21.30
2022-09-10T22:36:51.295Z,20.80
2022-09-10T22:39:21.512Z,22.50
2022-09-10T22:41:51.316Z,22.50
2022-09-10T22:44:20.202Z,20.10
2022-09-10T22:46:48.430Z,20.40
2022-09-10T22:49:17.147Z,22.80
2022-09-10T22:51:45.182Z,23.40
2022-09-10T22:54:13.677Z,23.10
2022-09-10T22:56:42.209Z,23.40
2022-09-10T22:59:14.105Z,25.20
2022-09-10T23:01:44.465Z,23.60
2022-09-10T23:04:12.378Z,22.20
2022-09-10T23:06:40.254Z,20.20
2022-09-10T23:09:15.585Z,21.40
2022-09-10T23:11:45.859Z,23.10
2022-09-10T23:14:19.348Z,24.10
2022-09-10T23:16:50.386Z,23.10
2022-09-10T23:19:22.927Z,22.10
2022-09-10T23:21:54.466Z,19.90
2022-09-10T23:24:25.359Z,18.40
2022-09-10T23:26:54.040Z,16.80
2022-09-10T23:29:23.305Z,17.10
2022-09-10T23:31:55.279Z,17.60
2022-09-10T23:34:23.685Z,17.00
2022-09-10T23:36:52.944Z,13.80
2022-09-10T23:39:23.981Z,14.90
2022-09-10T23:41:56.885Z,17.80
2022-09-10T23:44:25.903Z,17.70
2022-09-10T23:46:54.062Z,17.30
2022-09-10T23:49:24.177Z,16.70
2022-09-10T23:51:52.274Z,15.80
2022-09-10T23:54:20.170Z,16.10
2022-09-10T23:56:48.170Z,17.40
2022-09-10T23:59:15.920Z,17.70
